We Are Winnipeg.

Screenshot by Justin Martin

Come explore the heart of Canada.  

  Top Controllers this Month

Todd Blanchette 1386032
33:39

James Norris 1405159
31:57

Justin 984292
26:14

Tim Lowe 1501600
20:31

1480837
19:16

  Online Controllers

No controllers online.

  Weather

CYWG - Winnipeg / James Armstrong Richardson International Airport   IFR
CYWG 181100Z 01021G26KT 6SM -SNRA OVC005 01/M00 A2991 RMK SF8 SLP137

CYXE - Saskatoon John G. Diefenbaker International Airport   MVFR
CYXE 181100Z 05009KT 15SM BKN028 BKN180 M01/M06 A3027 RMK SC5AC2 SLP271

CYQT - Thunder Bay Airport   VFR
CYQT 181100Z 25002KT 20SM FEW180 SCT230 M04/M05 A2986 RMK AC1CI3 SLP121

CYQR - Regina International Airport   VFR
CYQR 181100Z 01013G18KT 15SM FEW030 BKN080 OVC220 02/M03 A3012 RMK SC2AC4CI2 SLP216